Time;durP1;ratioP1;P1;durP2;ratioP2;P2;SDS_P1;SDS_P2;PMS_P1;PMS_P2;Temp;Humidity;BMP_temperature;BMP_pressure;BME280_temperature;BME280_humidity;BME280_pressure;Samples;Min_cycle;Max_cycle;Signal;HPM_P1;HPM_P2
2021/12/13 00:01:38;;;;;;;7.93;4.70;;;10.10;99.90;;;;;;5083061;28;20052;-75
2021/12/13 00:04:07;;;;;;;6.28;2.30;;;10.10;99.90;;;;;;5088822;28;20079;-76
2021/12/13 00:06:37;;;;;;;10.52;4.22;;;10.10;99.90;;;;;;5088109;28;20173;-78
2021/12/13 00:09:12;;;;;;;3.78;3.45;;;10.00;99.90;;;;;;5080554;28;20371;-75
2021/12/13 00:11:45;;;;;;;5.25;2.88;;;10.10;99.90;;;;;;5078036;28;20478;-77
2021/12/13 00:14:19;;;;;;;6.97;3.72;;;10.00;99.90;;;;;;5070398;28;20115;-75
2021/12/13 00:16:57;;;;;;;5.30;3.38;;;10.10;99.90;;;;;;5100077;28;20051;-76
2021/12/13 00:19:33;;;;;;;5.18;3.22;;;10.10;99.90;;;;;;5082708;28;20044;-76
2021/12/13 00:22:05;;;;;;;4.83;3.53;;;10.00;99.90;;;;;;5083601;28;20510;-75
2021/12/13 00:24:34;;;;;;;5.90;3.50;;;10.00;99.90;;;;;;5083225;28;21288;-76
2021/12/13 00:27:11;;;;;;;3.03;2.65;;;10.10;99.90;;;;;;5079830;28;20099;-76
2021/12/13 00:29:51;;;;;;;4.32;3.17;;;10.00;99.90;;;;;;5089270;28;20430;-75
2021/12/13 00:32:56;;;;;;;7.78;3.45;;;10.00;99.90;;;;;;5085884;28;20043;-76
2021/12/13 00:35:28;;;;;;;4.93;4.20;;;10.00;99.90;;;;;;5074669;28;20087;-75
2021/12/13 00:38:04;;;;;;;12.00;3.65;;;10.00;99.90;;;;;;5088387;28;20040;-75
2021/12/13 00:40:42;;;;;;;4.65;3.70;;;10.00;99.90;;;;;;5089554;28;20508;-75
2021/12/13 00:43:23;;;;;;;6.97;3.75;;;10.00;99.90;;;;;;5078402;28;20055;-75
2021/12/13 00:45:56;;;;;;;8.05;4.90;;;10.00;99.90;;;;;;5091001;28;20064;-75
2021/12/13 00:48:25;;;;;;;6.05;3.45;;;10.00;99.90;;;;;;5084738;28;20043;-76
2021/12/13 00:50:57;;;;;;;7.15;3.55;;;10.00;99.90;;;;;;5083389;28;20063;-75
2021/12/13 00:53:23;;;;;;;6.22;3.78;;;10.10;99.90;;;;;;5078256;28;20094;-75
2021/12/13 00:55:50;;;;;;;;;;;10.10;99.90;;;;;;5084177;28;20470;-75
2021/12/13 00:58:23;;;;;;;7.10;4.63;;;10.00;99.90;;;;;;5090621;28;20352;-75
2021/12/13 01:00:58;;;;;;;4.53;3.47;;;10.10;99.90;;;;;;5082835;28;20101;-74
2021/12/13 01:03:32;;;;;;;8.82;4.35;;;10.10;99.90;;;;;;5080327;28;20489;-74
2021/12/13 01:06:37;;;;;;;10.23;4.65;;;10.00;99.90;;;;;;5088816;28;20052;-75
2021/12/13 01:09:24;;;;;;;11.30;4.88;;;10.00;99.90;;;;;;5086987;28;20101;-74
2021/12/13 01:12:01;;;;;;;5.40;3.63;;;10.00;99.90;;;;;;5087195;28;20051;-74
2021/12/13 01:14:58;;;;;;;8.55;4.93;;;10.00;99.90;;;;;;5073533;28;20701;-75
2021/12/13 01:18:03;;;;;;;13.35;5.65;;;10.00;99.90;;;;;;5081859;28;20047;-74
2021/12/13 01:20:58;;;;;;;7.90;4.28;;;10.00;99.90;;;;;;5076323;28;20424;-75
2021/12/13 01:23:40;;;;;;;9.27;5.55;;;10.10;99.90;;;;;;5086229;28;20480;-75
2021/12/13 01:26:28;;;;;;;6.93;4.05;;;10.00;99.90;;;;;;5084680;28;20044;-74
2021/12/13 01:29:01;;;;;;;7.32;3.75;;;10.00;99.90;;;;;;5086705;28;20110;-74
2021/12/13 01:31:46;;;;;;;12.13;4.63;;;10.00;99.90;;;;;;5073652;28;20060;-74
2021/12/13 01:34:14;;;;;;;11.50;4.93;;;10.00;99.90;;;;;;5083061;28;20048;-75
2021/12/13 01:36:52;;;;;;;8.60;4.80;;;10.00;99.90;;;;;;5090544;28;20044;-77
2021/12/13 01:39:23;;;;;;;7.15;3.95;;;10.00;99.90;;;;;;5105146;28;20067;-74
2021/12/13 01:42:01;;;;;;;7.03;4.65;;;10.00;99.90;;;;;;5075440;28;20050;-76
2021/12/13 01:44:34;;;;;;;7.32;4.53;;;10.00;99.90;;;;;;5086195;28;20058;-75
2021/12/13 01:47:16;;;;;;;8.30;4.15;;;10.00;99.90;;;;;;5088838;28;20534;-75
2021/12/13 01:49:46;;;;;;;10.23;5.35;;;10.00;99.90;;;;;;5090413;28;20111;-76
2021/12/13 01:52:26;;;;;;;7.28;3.80;;;10.00;99.90;;;;;;5081728;28;20031;-74
2021/12/13 01:54:54;;;;;;;5.88;4.90;;;10.00;99.90;;;;;;5090783;28;20043;-75
2021/12/13 01:57:37;;;;;;;5.68;2.75;;;10.00;99.90;;;;;;5070660;28;20051;-74
2021/12/13 02:00:17;;;;;;;5.80;3.35;;;10.10;99.90;;;;;;5080344;28;20080;-73
2021/12/13 02:02:51;;;;;;;7.70;3.13;;;10.00;99.90;;;;;;5076274;28;20039;-74
2021/12/13 02:05:21;;;;;;;6.88;4.60;;;10.10;99.90;;;;;;5075064;28;20055;-74
2021/12/13 02:07:50;;;;;;;11.85;5.15;;;10.10;99.90;;;;;;5084132;28;20044;-75
2021/12/13 02:10:27;;;;;;;6.35;3.40;;;10.00;99.90;;;;;;5077014;28;20047;-74
2021/12/13 02:12:57;;;;;;;;;;;10.10;99.90;;;;;;5086199;28;20462;-74
2021/12/13 02:18:16;;;;;;;15.02;4.47;;;10.10;99.90;;;;;;5088006;28;20354;-75
2021/12/13 02:20:48;;;;;;;6.80;4.20;;;10.00;99.90;;;;;;5085306;28;20071;-75
2021/12/13 02:23:14;;;;;;;9.13;5.15;;;10.00;99.90;;;;;;5074579;28;20409;-75
2021/12/13 02:25:42;;;;;;;;;;;10.10;99.90;;;;;;5084355;28;20052;-75
2021/12/13 02:28:13;;;;;;;10.70;5.70;;;10.10;99.90;;;;;;5086483;28;19916;-75
2021/12/13 02:30:44;;;;;;;12.45;4.97;;;10.10;99.90;;;;;;5088881;28;20067;-75
2021/12/13 02:33:19;;;;;;;11.25;5.57;;;10.10;99.90;;;;;;5084766;28;20450;-77
2021/12/13 02:35:56;;;;;;;10.13;4.72;;;10.00;99.90;;;;;;5085827;28;20039;-75
2021/12/13 02:38:23;;;;;;;5.20;3.85;;;10.00;99.90;;;;;;5081765;28;20123;-76
2021/12/13 02:40:51;;;;;;;6.93;4.82;;;10.00;99.90;;;;;;5068232;28;20047;-76
2021/12/13 02:43:20;;;;;;;13.45;4.82;;;10.00;99.90;;;;;;5088541;28;20089;-74
2021/12/13 02:45:49;;;;;;;10.70;5.10;;;10.00;99.90;;;;;;5093576;28;20040;-76
2021/12/13 02:48:27;;;;;;;13.30;5.80;;;10.00;99.90;;;;;;5087311;28;20066;-75
2021/12/13 02:51:01;;;;;;;10.10;5.60;;;10.00;99.90;;;;;;5090279;28;20105;-75
2021/12/13 02:53:38;;;;;;;9.20;5.88;;;10.00;99.90;;;;;;5087906;28;20378;-75
2021/12/13 02:56:04;;;;;;;7.80;4.88;;;10.00;99.90;;;;;;5091956;28;20120;-75
2021/12/13 02:58:35;;;;;;;6.93;4.60;;;10.00;99.90;;;;;;5085665;28;20109;-74
2021/12/13 03:01:23;;;;;;;13.65;4.70;;;9.60;99.90;;;;;;5079564;28;20394;-75
2021/12/13 03:03:55;;;;;;;9.52;5.30;;;10.00;99.90;;;;;;5079205;28;20174;-75
2021/12/13 03:06:27;;;;;;;5.93;3.78;;;10.00;99.90;;;;;;5088580;28;20123;-75
2021/12/13 03:09:00;;;;;;;10.88;5.70;;;10.00;99.90;;;;;;5092230;28;20462;-76
2021/12/13 03:11:32;;;;;;;13.55;5.00;;;9.90;99.90;;;;;;5100906;28;20447;-75
2021/12/13 03:14:08;;;;;;;12.40;6.10;;;9.90;99.90;;;;;;5070349;28;20093;-75
2021/12/13 03:17:09;;;;;;;7.97;4.55;;;9.90;99.90;;;;;;5074936;28;20104;-75
2021/12/13 03:19:40;;;;;;;9.07;5.32;;;9.90;99.90;;;;;;5083560;28;20057;-75
2021/12/13 03:22:37;;;;;;;6.32;3.95;;;9.90;99.90;;;;;;5082137;28;20114;-75
2021/12/13 03:25:12;;;;;;;7.82;3.92;;;9.90;99.90;;;;;;5092929;28;20062;-75
2021/12/13 03:27:50;;;;;;;12.98;5.60;;;9.90;99.90;;;;;;5095377;28;20043;-76
2021/12/13 03:30:27;;;;;;;7.10;3.78;;;9.90;99.90;;;;;;5081232;28;20040;-76
2021/12/13 03:32:56;;;;;;;;;;;9.90;99.90;;;;;;5083819;28;20489;-76
2021/12/13 03:35:34;;;;;;;18.27;6.40;;;9.90;99.90;;;;;;5083922;28;19941;-76
2021/12/13 03:38:05;;;;;;;11.35;4.18;;;9.80;99.90;;;;;;5090098;28;20512;-75
2021/12/13 03:40:33;;;;;;;12.10;4.22;;;9.80;99.90;;;;;;5092386;28;20071;-76
2021/12/13 03:43:04;;;;;;;13.30;5.57;;;9.90;99.90;;;;;;5085114;28;20163;-75
2021/12/13 03:45:38;;;;;;;7.40;5.05;;;9.80;99.90;;;;;;5079082;28;20082;-75
2021/12/13 03:48:06;;;;;;;11.43;4.95;;;9.80;99.90;;;;;;5085987;28;20460;-76
2021/12/13 03:50:37;;;;;;;10.02;4.25;;;9.80;99.90;;;;;;5074359;28;20097;-75
2021/12/13 03:53:25;;;;;;;8.85;4.82;;;9.80;99.90;;;;;;5084511;28;20139;-75
2021/12/13 03:56:03;;;;;;;12.27;5.60;;;9.80;99.90;;;;;;5085872;28;20044;-76
2021/12/13 03:58:33;;;;;;;10.10;4.88;;;9.80;99.90;;;;;;5086286;28;20129;-75
2021/12/13 04:01:21;;;;;;;9.95;3.78;;;9.80;99.90;;;;;;5084379;28;20182;-76
2021/12/13 04:03:49;;;;;;;8.35;3.80;;;9.80;99.90;;;;;;5073337;28;20132;-75
2021/12/13 04:06:21;;;;;;;7.43;5.05;;;9.80;99.90;;;;;;5090187;28;20098;-76
2021/12/13 04:08:53;;;;;;;8.60;4.75;;;9.80;99.90;;;;;;5086227;28;20040;-76
2021/12/13 04:11:22;;;;;;;7.70;4.30;;;9.70;99.90;;;;;;5091923;28;20040;-75
2021/12/13 04:13:55;;;;;;;6.63;3.38;;;9.70;99.90;;;;;;5084422;28;20036;-75
2021/12/13 04:17:01;;;;;;;5.75;2.65;;;9.70;99.90;;;;;;5086459;28;20044;-75
2021/12/13 04:19:32;;;;;;;4.30;2.60;;;9.70;99.90;;;;;;5084885;28;20055;-77
2021/12/13 04:22:02;;;;;;;4.07;2.85;;;9.70;99.90;;;;;;5087947;28;20127;-75
2021/12/13 04:24:51;;;;;;;7.93;4.45;;;9.70;99.90;;;;;;5083919;28;20050;-75
2021/12/13 04:27:23;;;;;;;4.80;3.15;;;9.70;99.90;;;;;;5075842;28;20351;-75
2021/12/13 04:29:52;;;;;;;4.65;2.85;;;9.70;99.90;;;;;;5068860;28;20044;-75
2021/12/13 04:32:33;;;;;;;5.30;2.83;;;9.60;99.90;;;;;;5074824;28;20094;-75
2021/12/13 04:35:03;;;;;;;5.68;2.58;;;9.70;99.90;;;;;;5097819;28;20040;-75
2021/12/13 04:37:35;;;;;;;5.32;2.60;;;9.60;99.90;;;;;;5084754;28;20120;-75
2021/12/13 04:40:10;;;;;;;5.57;3.05;;;9.60;99.90;;;;;;5075259;28;20040;-76
2021/12/13 04:42:36;;;;;;;3.15;2.20;;;9.60;99.90;;;;;;5081688;28;20049;-76
2021/12/13 04:45:05;;;;;;;6.60;2.35;;;9.60;99.90;;;;;;5088729;28;20052;-76
2021/12/13 04:48:08;;;;;;;5.13;2.45;;;9.60;99.90;;;;;;5084524;28;20164;-77
2021/12/13 04:50:45;;;;;;;8.23;1.88;;;9.60;99.90;;;;;;5066077;28;20036;-76
2021/12/13 04:53:24;;;;;;;3.88;1.83;;;9.50;99.90;;;;;;5086371;28;20482;-76
2021/12/13 04:55:52;;;;;;;1.92;1.65;;;9.60;99.90;;;;;;5089233;28;20043;-76
2021/12/13 04:58:18;;;;;;;4.15;2.13;;;9.50;99.90;;;;;;5082254;28;20060;-76
2021/12/13 05:00:49;;;;;;;8.13;2.55;;;9.50;99.90;;;;;;5072237;28;20070;-76
2021/12/13 05:03:20;;;;;;;1.85;1.58;;;9.50;99.90;;;;;;5085286;28;20044;-75
2021/12/13 05:05:46;;;;;;;5.65;2.65;;;9.50;99.90;;;;;;5072764;28;20036;-76
2021/12/13 05:08:14;;;;;;;3.03;1.92;;;9.50;99.90;;;;;;5089703;28;20509;-76
2021/12/13 05:10:46;;;;;;;2.05;1.45;;;9.50;99.90;;;;;;5060757;28;20113;-76
2021/12/13 05:13:22;;;;;;;3.30;1.55;;;9.50;99.90;;;;;;5080955;28;20048;-76
2021/12/13 05:16:10;;;;;;;2.72;1.67;;;9.50;99.90;;;;;;5055006;28;20032;-75
2021/12/13 05:18:40;;;;;;;;;;;9.50;99.90;;;;;;5068550;28;20058;-75
2021/12/13 05:21:09;;;;;;;5.53;1.75;;;9.50;99.90;;;;;;5105465;28;19955;-76
2021/12/13 05:23:46;;;;;;;1.80;1.35;;;9.50;99.90;;;;;;5080866;28;20083;-75
2021/12/13 05:26:19;;;;;;;1.55;1.45;;;9.50;99.90;;;;;;5070597;28;20150;-76
2021/12/13 05:28:50;;;;;;;1.75;1.50;;;9.50;99.90;;;;;;5083752;28;20044;-76
2021/12/13 05:31:18;;;;;;;6.32;2.78;;;9.40;99.90;;;;;;5074148;28;20064;-76
2021/12/13 05:33:50;;;;;;;4.22;2.20;;;9.50;99.90;;;;;;5080934;28;20132;-76
2021/12/13 05:36:26;;;;;;;3.55;3.25;;;9.50;99.90;;;;;;5081008;28;20127;-75
2021/12/13 05:39:15;;;;;;;2.58;1.38;;;9.50;99.90;;;;;;5075795;28;20110;-75
2021/12/13 05:41:50;;;;;;;2.53;2.20;;;9.50;99.90;;;;;;5086082;28;20040;-75
2021/12/13 05:44:32;;;;;;;1.30;1.20;;;9.40;99.90;;;;;;5087306;28;20092;-76
2021/12/13 05:47:01;;;;;;;3.17;1.90;;;9.50;99.90;;;;;;5073219;28;20415;-76
2021/12/13 05:49:36;;;;;;;1.58;1.48;;;9.50;99.90;;;;;;5086660;28;20132;-76
2021/12/13 05:52:24;;;;;;;2.50;1.98;;;9.40;99.90;;;;;;5082923;28;20394;-75
2021/12/13 05:54:57;;;;;;;1.90;1.45;;;9.40;99.90;;;;;;5094993;28;20040;-76
2021/12/13 05:57:34;;;;;;;8.10;1.92;;;9.40;99.90;;;;;;5091038;28;20779;-76
2021/12/13 06:00:23;;;;;;;2.53;1.98;;;9.40;99.90;;;;;;5080806;28;20443;-75
2021/12/13 06:03:16;;;;;;;3.72;2.03;;;9.40;99.90;;;;;;5088922;28;20048;-75
2021/12/13 06:05:48;;;;;;;1.83;1.45;;;9.40;99.90;;;;;;5083245;28;20052;-77
2021/12/13 06:08:18;;;;;;;2.58;1.88;;;9.50;99.90;;;;;;5090261;28;20040;-76
2021/12/13 06:10:47;;;;;;;2.92;1.98;;;9.40;99.90;;;;;;5087075;28;20032;-76
2021/12/13 06:13:23;;;;;;;2.95;2.47;;;9.40;99.90;;;;;;5090019;28;20040;-76
2021/12/13 06:15:50;;;;;;;2.92;2.05;;;9.40;99.90;;;;;;5075648;28;20048;-75
2021/12/13 06:18:29;;;;;;;2.33;1.83;;;9.40;99.90;;;;;;5079786;28;20405;-75
2021/12/13 06:21:36;;;;;;;3.58;3.20;;;9.40;99.90;;;;;;5081192;28;20047;-76
2021/12/13 06:24:01;;;;;;;3.28;2.03;;;9.40;99.90;;;;;;5082960;28;20533;-76
2021/12/13 06:26:30;;;;;;;1.42;1.33;;;9.40;99.90;;;;;;5085525;28;20131;-76
2021/12/13 06:29:03;;;;;;;2.90;2.50;;;9.40;99.90;;;;;;5083865;28;20052;-76
2021/12/13 06:31:41;;;;;;;3.03;2.25;;;9.40;99.90;;;;;;5076450;28;20118;-75
2021/12/13 06:34:14;;;;;;;4.57;2.58;;;9.30;99.90;;;;;;5078099;28;20421;-75
2021/12/13 06:36:45;;;;;;;5.15;1.88;;;9.30;99.90;;;;;;5090049;28;20052;-76
2021/12/13 06:39:25;;;;;;;6.18;3.03;;;9.40;99.90;;;;;;5084044;28;20032;-76
2021/12/13 06:41:58;;;;;;;2.97;1.55;;;9.30;99.90;;;;;;5076701;28;20040;-77
2021/12/13 06:44:34;;;;;;;5.40;2.55;;;9.40;99.90;;;;;;5078050;28;20532;-79
2021/12/13 06:47:21;;;;;;;2.55;1.88;;;9.30;99.90;;;;;;5090205;28;20051;-77
2021/12/13 06:49:57;;;;;;;4.03;2.97;;;9.40;99.90;;;;;;5076144;28;20158;-77
2021/12/13 06:52:38;;;;;;;3.42;2.78;;;9.40;99.90;;;;;;5087300;28;20090;-76
2021/12/13 06:55:23;;;;;;;6.55;2.65;;;9.40;99.90;;;;;;5064634;28;20055;-76
2021/12/13 06:57:57;;;;;;;4.50;3.55;;;9.30;99.90;;;;;;5083019;28;20043;-77
2021/12/13 07:00:22;;;;;;;4.05;2.50;;;9.40;99.90;;;;;;5080247;28;20055;-77
2021/12/13 07:03:21;;;;;;;7.90;2.30;;;9.40;99.90;;;;;;5075462;28;20354;-76
2021/12/13 07:05:53;;;;;;;8.52;3.13;;;9.40;99.90;;;;;;5085905;28;20058;-76
2021/12/13 07:08:29;;;;;;;3.22;2.47;;;9.30;99.90;;;;;;5073936;28;20044;-77
2021/12/13 07:11:13;;;;;;;10.10;3.45;;;9.30;99.90;;;;;;5067776;28;20125;-78
2021/12/13 07:13:43;;;;;;;3.28;2.42;;;9.30;99.90;;;;;;5066245;28;20101;-77
2021/12/13 07:16:16;;;;;;;5.10;3.30;;;9.30;99.90;;;;;;5077033;28;20046;-76
2021/12/13 07:19:18;;;;;;;3.67;2.20;;;9.40;99.90;;;;;;5077382;28;20047;-79
2021/12/13 07:21:58;;;;;;;3.75;2.28;;;9.30;99.90;;;;;;5079834;28;20045;-77
2021/12/13 07:24:33;;;;;;;2.35;2.05;;;9.30;99.90;;;;;;5082640;28;20040;-78
2021/12/13 07:27:05;;;;;;;3.70;2.40;;;9.30;99.90;;;;;;5081449;28;20443;-75
2021/12/13 07:29:30;;;;;;;9.23;2.90;;;9.30;99.90;;;;;;5086555;28;20036;-75
2021/12/13 07:32:17;;;;;;;3.78;1.98;;;9.30;99.90;;;;;;5064894;28;20048;-76
2021/12/13 07:35:05;;;;;;;3.20;2.20;;;9.30;99.90;;;;;;5084007;28;20131;-77
2021/12/13 07:37:55;;;;;;;5.88;2.63;;;9.30;99.90;;;;;;5081833;28;20045;-80
2021/12/13 07:40:26;;;;;;;2.83;2.53;;;9.20;99.90;;;;;;5076357;28;20028;-78
2021/12/13 07:43:10;;;;;;;4.18;3.28;;;9.20;99.90;;;;;;5084850;28;20044;-80
2021/12/13 07:45:58;;;;;;;4.80;3.90;;;9.20;99.90;;;;;;5073049;28;20044;-78
2021/12/13 07:48:40;;;;;;;3.53;2.65;;;9.30;99.90;;;;;;5102397;28;20048;-79
2021/12/13 07:51:05;;;;;;;5.60;3.30;;;9.30;99.90;;;;;;5072283;28;20074;-76
2021/12/13 07:53:54;;;;;;;7.22;3.40;;;9.20;99.90;;;;;;5091274;28;20044;-77
2021/12/13 07:56:38;;;;;;;3.50;2.80;;;9.20;99.90;;;;;;5072273;28;20044;-80
2021/12/13 07:59:18;;;;;;;7.35;3.97;;;9.20;99.90;;;;;;5085535;28;20056;-77
2021/12/13 08:01:49;;;;;;;8.45;3.05;;;9.20;99.90;;;;;;5069461;28;20405;-76
2021/12/13 08:04:22;;;;;;;6.35;4.10;;;9.30;99.90;;;;;;5077887;28;20417;-78
2021/12/13 08:06:58;;;;;;;5.63;3.55;;;9.30;99.90;;;;;;5078585;28;20048;-77
2021/12/13 08:09:29;;;;;;;5.03;3.33;;;9.30;99.90;;;;;;5075152;28;20044;-75
2021/12/13 08:12:04;;;;;;;6.90;4.05;;;9.40;99.90;;;;;;5086135;28;20124;-76
2021/12/13 08:14:30;;;;;;;3.25;2.70;;;9.30;99.90;;;;;;5082874;28;20036;-76
2021/12/13 08:16:56;;;;;;;4.80;2.78;;;9.40;99.90;;;;;;5082285;28;20055;-77
2021/12/13 08:19:27;;;;;;;5.00;3.40;;;9.40;99.90;;;;;;5078138;28;20520;-76
2021/12/13 08:22:00;;;;;;;9.18;4.95;;;9.30;99.90;;;;;;5087819;28;20041;-77
2021/12/13 08:24:48;;;;;;;6.32;4.18;;;9.40;99.90;;;;;;5083909;28;20048;-76
2021/12/13 08:27:22;;;;;;;5.15;4.53;;;9.40;99.90;;;;;;5093340;28;20146;-76
2021/12/13 08:29:50;;;;;;;5.88;2.83;;;9.40;99.90;;;;;;5096159;28;20054;-77
2021/12/13 08:32:21;;;;;;;5.85;3.63;;;9.60;99.90;;;;;;5074365;28;20897;-78
2021/12/13 08:35:07;;;;;;;5.78;3.92;;;9.40;99.90;;;;;;5059615;28;20520;-78
2021/12/13 08:37:37;;;;;;;10.75;3.80;;;9.40;99.90;;;;;;5065131;28;20059;-78
2021/12/13 08:40:09;;;;;;;9.60;4.88;;;9.50;99.90;;;;;;5066706;28;20059;-79
2021/12/13 08:42:40;;;;;;;7.60;4.00;;;9.50;99.90;;;;;;5060514;28;20041;-78
2021/12/13 08:45:06;;;;;;;5.15;4.55;;;9.50;99.90;;;;;;5068174;28;20048;-77
2021/12/13 08:47:46;;;;;;;9.18;5.00;;;9.50;99.90;;;;;;5079555;28;20712;-79
2021/12/13 08:50:22;;;;;;;5.40;3.85;;;9.50;99.90;;;;;;5078655;28;20044;-78
2021/12/13 08:52:55;;;;;;;6.22;3.83;;;9.50;99.90;;;;;;5088022;28;20052;-80
2021/12/13 08:55:27;;;;;;;8.07;5.20;;;9.60;99.90;;;;;;5082962;28;20041;-80
2021/12/13 08:58:17;;;;;;;13.38;3.75;;;9.50;99.90;;;;;;5069792;28;20044;-78
2021/12/13 09:00:51;;;;;;;10.18;4.80;;;9.60;99.90;;;;;;5079150;28;20044;-79
2021/12/13 09:03:32;;;;;;;10.48;4.55;;;9.60;99.90;;;;;;5055125;28;20205;-76
2021/12/13 09:06:17;;;;;;;6.35;3.90;;;9.60;99.90;;;;;;5083184;28;20051;-77
2021/12/13 09:08:49;;;;;;;6.22;4.30;;;9.80;99.90;;;;;;5070118;28;20032;-77
2021/12/13 09:11:27;;;;;;;8.80;4.38;;;9.70;99.90;;;;;;5076802;28;20536;-78
2021/12/13 09:14:20;;;;;;;7.30;5.68;;;9.70;99.90;;;;;;5081380;28;20132;-77
2021/12/13 09:17:09;;;;;;;9.10;5.30;;;9.70;99.90;;;;;;5084894;28;20051;-78
2021/12/13 09:20:28;;;;;;;9.25;4.47;;;9.70;99.90;;;;;;5078057;28;20430;-78
2021/12/13 09:23:08;;;;;;;14.65;6.25;;;9.80;99.90;;;;;;5047872;28;20055;-77
2021/12/13 09:26:10;;;;;;;6.43;4.25;;;9.90;99.90;;;;;;5103185;28;20044;-78
2021/12/13 09:29:16;;;;;;;6.25;3.90;;;9.80;99.90;;;;;;5085109;28;20042;-79
2021/12/13 09:31:54;;;;;;;4.82;3.70;;;9.90;99.90;;;;;;5063770;28;20062;-80
2021/12/13 09:34:21;;;;;;;6.70;4.80;;;9.90;99.90;;;;;;5067016;28;20044;-79
2021/12/13 09:37:06;;;;;;;6.50;3.97;;;9.90;99.90;;;;;;5061479;28;20080;-78
2021/12/13 09:39:32;;;;;;;6.53;4.63;;;9.90;99.90;;;;;;5079516;28;20029;-78
2021/12/13 09:42:06;;;;;;;7.10;4.07;;;9.90;99.90;;;;;;5080412;28;20131;-77
2021/12/13 09:45:00;;;;;;;6.05;3.97;;;9.90;99.90;;;;;;5076162;28;20048;-77
2021/12/13 09:47:39;;;;;;;9.77;5.50;;;9.90;99.90;;;;;;5076728;28;20050;-77
2021/12/13 09:50:31;;;;;;;6.38;4.32;;;9.90;99.90;;;;;;5087406;28;20068;-76
2021/12/13 09:53:06;;;;;;;7.15;3.42;;;10.00;99.90;;;;;;5075756;28;20049;-78
2021/12/13 09:55:47;;;;;;;6.03;4.13;;;10.00;99.90;;;;;;5074305;28;20052;-77
2021/12/13 09:58:17;;;;;;;5.82;4.35;;;10.00;99.90;;;;;;5070685;28;20048;-79
2021/12/13 10:00:49;;;;;;;5.57;3.83;;;10.00;99.90;;;;;;5080327;28;20040;-79
2021/12/13 10:03:25;;;;;;;7.18;4.07;;;10.10;99.90;;;;;;5062719;28;20040;-78
2021/12/13 10:05:55;;;;;;;6.27;3.73;;;10.00;99.90;;;;;;5066649;28;20044;-79
2021/12/13 10:08:36;;;;;;;5.28;4.28;;;10.00;99.90;;;;;;5064332;28;20102;-79
2021/12/13 10:11:11;;;;;;;4.70;3.45;;;10.00;99.90;;;;;;5080444;28;20457;-77
2021/12/13 10:13:39;;;;;;;6.13;3.95;;;10.10;99.90;;;;;;5067073;28;20067;-77
2021/12/13 10:16:12;;;;;;;11.52;4.38;;;10.00;99.90;;;;;;5081507;28;20048;-78
2021/12/13 10:18:43;;;;;;;9.70;4.75;;;10.00;99.90;;;;;;5081303;28;20097;-79
2021/12/13 10:21:44;;;;;;;5.68;3.78;;;10.00;99.90;;;;;;5076508;28;20068;-77
2021/12/13 10:24:20;;;;;;;13.43;3.95;;;10.00;99.90;;;;;;5045602;28;20082;-77
2021/12/13 10:26:48;;;;;;;5.93;3.33;;;10.00;99.90;;;;;;5085167;28;20479;-78
2021/12/13 10:29:17;;;;;;;6.47;4.85;;;10.00;99.90;;;;;;5072755;28;20031;-79
2021/12/13 10:31:51;;;;;;;5.28;3.03;;;10.00;99.90;;;;;;5069669;28;20059;-78
2021/12/13 10:34:29;;;;;;;7.55;3.42;;;10.00;99.90;;;;;;5087408;28;20052;-78
2021/12/13 10:37:09;;;;;;;8.65;3.58;;;10.10;99.90;;;;;;5082112;28;20417;-80
2021/12/13 10:39:52;;;;;;;7.47;4.55;;;10.10;99.90;;;;;;5071957;28;20051;-77
2021/12/13 10:42:33;;;;;;;5.85;3.67;;;10.20;99.90;;;;;;5064591;28;20101;-80
2021/12/13 10:45:03;;;;;;;8.90;3.15;;;10.20;99.90;;;;;;5069532;28;20041;-77
2021/12/13 10:47:48;;;;;;;6.97;4.68;;;10.20;99.90;;;;;;5087968;28;20126;-81
2021/12/13 10:50:39;;;;;;;7.35;4.68;;;11.50;99.90;;;;;;5081433;28;20036;-80
2021/12/13 10:53:07;;;;;;;7.20;4.63;;;10.30;99.90;;;;;;5079953;28;20544;-82
2021/12/13 10:55:39;;;;;;;6.85;3.97;;;10.30;99.90;;;;;;5074221;28;20432;-79
2021/12/13 10:58:05;;;;;;;12.40;5.10;;;10.30;99.90;;;;;;5089903;28;20473;-79
2021/12/13 11:00:35;;;;;;;4.20;3.53;;;10.30;99.90;;;;;;5057789;28;20059;-77
2021/12/13 11:03:13;;;;;;;5.53;3.97;;;10.30;99.90;;;;;;5084378;28;20071;-76
2021/12/13 11:05:40;;;;;;;7.88;4.88;;;10.20;99.90;;;;;;5088862;28;20093;-78
2021/12/13 11:08:15;;;;;;;11.40;5.38;;;10.20;99.90;;;;;;5094825;28;20083;-79
2021/12/13 11:10:47;;;;;;;6.50;3.75;;;10.20;99.90;;;;;;5064469;28;20049;-81
2021/12/13 11:13:15;;;;;;;4.68;3.70;;;10.20;99.90;;;;;;5069141;28;20040;-81
2021/12/13 11:15:43;;;;;;;6.65;4.03;;;10.20;99.90;;;;;;5061958;28;20128;-80
2021/12/13 11:18:27;;;;;;;4.97;3.90;;;10.20;99.90;;;;;;5092463;28;20508;-81
2021/12/13 11:20:59;;;;;;;8.68;4.88;;;10.20;99.90;;;;;;5074087;28;20050;-82
2021/12/13 11:23:28;;;;;;;7.78;4.78;;;10.30;99.90;;;;;;5090692;28;20185;-80
2021/12/13 11:26:05;;;;;;;4.75;3.55;;;10.40;99.90;;;;;;5055012;28;20554;-80
2021/12/13 11:28:32;;;;;;;;;;;10.20;99.90;;;;;;5080120;28;20409;-79
2021/12/13 11:31:00;;;;;;;;;;;10.30;99.90;;;;;;5080061;28;19920;-79
2021/12/13 11:33:38;;;;;;;15.43;4.45;;;10.30;99.90;;;;;;5103388;28;19923;-78
2021/12/13 11:36:07;;;;;;;7.50;4.45;;;10.30;99.90;;;;;;5073804;28;20052;-78
2021/12/13 11:39:30;;;;;;;9.23;4.75;;;10.30;99.90;;;;;;5071824;28;20553;-78
2021/12/13 11:42:34;;;;;;;8.20;4.47;;;10.40;99.90;;;;;;5052019;28;20048;-80
2021/12/13 11:45:08;;;;;;;7.00;2.95;;;10.30;99.90;;;;;;5029891;28;20890;-78
2021/12/13 11:48:15;;;;;;;6.00;3.53;;;10.30;99.90;;;;;;5078637;28;20440;-78
2021/12/13 11:51:07;;;;;;;4.97;3.30;;;10.30;99.90;;;;;;5052178;28;20044;-78
2021/12/13 11:54:00;;;;;;;7.07;5.07;;;10.30;99.90;;;;;;5082836;28;20103;-82
2021/12/13 11:56:38;;;;;;;7.47;4.20;;;10.40;99.90;;;;;;5066755;28;20071;-80
2021/12/13 11:59:17;;;;;;;8.45;4.93;;;10.40;99.90;;;;;;5068513;28;20048;-78
2021/12/13 12:06:03;;;;;;;6.05;4.43;;;10.50;99.90;;;;;;5044102;28;20079;-78
2021/12/13 12:08:55;;;;;;;5.15;3.58;;;10.60;99.90;;;;;;5082415;28;20040;-80
2021/12/13 12:12:09;;;;;;;5.13;3.60;;;10.60;99.90;;;;;;5076550;28;20056;-81
2021/12/13 12:14:35;;;;;;;9.25;5.05;;;10.60;99.90;;;;;;5033313;28;20049;-76
2021/12/13 12:17:04;;;;;;;5.60;3.60;;;10.60;99.90;;;;;;5059068;28;20051;-79
2021/12/13 12:19:36;;;;;;;5.05;3.90;;;10.60;99.90;;;;;;5083183;28;20080;-81
2021/12/13 12:22:06;;;;;;;8.32;5.53;;;10.50;99.90;;;;;;5072187;28;20062;-78
2021/12/13 12:24:41;;;;;;;7.57;4.10;;;10.50;99.90;;;;;;5075127;28;20043;-82
2021/12/13 12:27:12;;;;;;;7.40;3.83;;;10.50;99.90;;;;;;5080877;28;20052;-77
2021/12/13 12:29:51;;;;;;;8.00;4.55;;;10.40;99.90;;;;;;5079304;28;20036;-79
2021/12/13 12:32:27;;;;;;;12.35;5.97;;;10.40;99.90;;;;;;5068543;28;20047;-79
2021/12/13 12:35:11;;;;;;;7.88;4.35;;;10.10;99.90;;;;;;5077691;28;20474;-78
2021/12/13 12:37:55;;;;;;;7.63;5.00;;;10.30;99.90;;;;;;5072861;28;20699;-77
2021/12/13 12:41:00;;;;;;;9.18;5.88;;;10.20;99.90;;;;;;5072233;28;20044;-78
2021/12/13 12:43:31;;;;;;;6.95;4.55;;;10.20;99.90;;;;;;5052016;28;20046;-78
2021/12/13 12:46:06;;;;;;;9.00;4.43;;;10.10;99.90;;;;;;5070317;28;20445;-78
2021/12/13 12:48:38;;;;;;;7.43;4.22;;;10.00;99.90;;;;;;5072926;28;20076;-77
2021/12/13 12:51:25;;;;;;;7.15;5.07;;;10.00;99.90;;;;;;5076838;28;20044;-77
2021/12/13 12:54:04;;;;;;;9.27;5.70;;;9.90;99.90;;;;;;5083618;28;20063;-79
2021/12/13 12:56:42;;;;;;;5.20;3.95;;;9.90;99.90;;;;;;5083975;28;20041;-78
2021/12/13 12:59:13;;;;;;;8.60;4.55;;;9.90;99.90;;;;;;5075651;28;20094;-77
2021/12/13 13:01:44;;;;;;;6.28;4.20;;;9.90;99.90;;;;;;5083461;28;20080;-83
2021/12/13 13:04:16;;;;;;;8.23;3.80;;;10.00;99.90;;;;;;5083350;28;20493;-77
2021/12/13 13:06:56;;;;;;;6.55;4.10;;;9.90;99.90;;;;;;5071403;28;20055;-82
2021/12/13 13:09:33;;;;;;;11.80;6.10;;;9.90;99.90;;;;;;5070938;28;20473;-78
2021/12/13 13:11:59;;;;;;;;;;;10.00;99.90;;;;;;5076876;28;20040;-78
2021/12/13 13:14:30;;;;;;;6.18;4.43;;;10.00;99.90;;;;;;5080807;28;19926;-76
2021/12/13 13:17:04;;;;;;;6.90;4.03;;;10.00;99.90;;;;;;5095395;28;20040;-78
2021/12/13 13:19:37;;;;;;;5.57;3.30;;;10.00;99.90;;;;;;5072700;28;20123;-77
2021/12/13 13:22:14;;;;;;;9.38;6.03;;;10.10;99.90;;;;;;5087726;28;20036;-79
2021/12/13 13:24:44;;;;;;;;;;;10.10;99.90;;;;;;5076590;28;20127;-79
2021/12/13 13:27:14;;;;;;;5.22;3.80;;;10.10;99.90;;;;;;5072870;28;19935;-78
2021/12/13 13:29:41;;;;;;;6.72;5.43;;;10.10;99.90;;;;;;5087349;28;20485;-77
2021/12/13 13:32:12;;;;;;;8.20;5.45;;;10.20;99.90;;;;;;5084375;28;20475;-77
2021/12/13 13:34:45;;;;;;;6.90;4.68;;;10.20;99.90;;;;;;5046115;28;22371;-78
2021/12/13 13:37:38;;;;;;;4.68;3.00;;;10.20;99.90;;;;;;5083083;28;20520;-79
2021/12/13 13:40:07;;;;;;;7.53;5.22;;;10.20;99.90;;;;;;5071388;28;20040;-79
2021/12/13 13:42:38;;;;;;;6.45;3.75;;;10.20;99.90;;;;;;5074160;28;20044;-78
2021/12/13 13:45:10;;;;;;;7.63;4.32;;;10.30;99.90;;;;;;5075916;28;20056;-79
2021/12/13 13:47:46;;;;;;;5.55;3.60;;;10.30;99.90;;;;;;5079877;28;20036;-78
2021/12/13 13:50:27;;;;;;;6.18;4.18;;;10.40;99.90;;;;;;5075994;28;20055;-78